sensor_id;sensor_type;location;lat;lon;timestamp;pressure;altitude;pressure_sealevel;temperature;humidity
49973;BME280;71845;49.798;10.968;2023-09-19T00:01:34;97664.97;;;16.21;74.03
49973;BME280;71845;49.798;10.968;2023-09-19T00:04:04;97673.06;;;16.39;73.62
49973;BME280;71845;49.798;10.968;2023-09-19T00:06:41;97678.25;;;16.41;73.35
49973;BME280;71845;49.798;10.968;2023-09-19T00:09:12;97671.56;;;16.27;74.15
49973;BME280;71845;49.798;10.968;2023-09-19T00:11:51;97670.28;;;16.31;74.38
49973;BME280;71845;49.798;10.968;2023-09-19T00:14:32;97670.31;;;16.21;74.83
49973;BME280;71845;49.798;10.968;2023-09-19T00:17:04;97676.09;;;16.16;74.98
49973;BME280;71845;49.798;10.968;2023-09-19T00:19:34;97676.16;;;16.34;74.27
49973;BME280;71845;49.798;10.968;2023-09-19T00:22:16;97675.22;;;16.26;74.89
49973;BME280;71845;49.798;10.968;2023-09-19T00:24:46;97684.06;;;16.36;74.95
49973;BME280;71845;49.798;10.968;2023-09-19T00:27:23;97684.06;;;16.36;74.33
49973;BME280;71845;49.798;10.968;2023-09-19T00:29:55;97692.56;;;16.21;74.67
49973;BME280;71845;49.798;10.968;2023-09-19T00:32:25;97693.50;;;16.30;74.41
49973;BME280;71845;49.798;10.968;2023-09-19T00:34:57;97690.28;;;16.27;74.34
49973;BME280;71845;49.798;10.968;2023-09-19T00:37:35;97690.44;;;16.25;74.15
49973;BME280;71845;49.798;10.968;2023-09-19T00:40:10;97690.97;;;16.29;73.95
49973;BME280;71845;49.798;10.968;2023-09-19T00:42:59;97691.53;;;16.32;73.47
49973;BME280;71845;49.798;10.968;2023-09-19T00:45:37;97689.19;;;16.19;74.12
49973;BME280;71845;49.798;10.968;2023-09-19T00:48:10;97701.91;;;16.35;73.13
49973;BME280;71845;49.798;10.968;2023-09-19T00:50:42;97696.78;;;16.04;74.37
49973;BME280;71845;49.798;10.968;2023-09-19T00:53:14;97693.38;;;16.12;73.88
49973;BME280;71845;49.798;10.968;2023-09-19T00:55:45;97694.56;;;16.00;74.24
49973;BME280;71845;49.798;10.968;2023-09-19T00:58:25;97704.69;;;16.06;74.07
49973;BME280;71845;49.798;10.968;2023-09-19T01:01:02;97701.72;;;15.99;74.00
49973;BME280;71845;49.798;10.968;2023-09-19T01:03:33;97703.47;;;15.81;74.66
49973;BME280;71845;49.798;10.968;2023-09-19T01:06:03;97698.00;;;15.82;74.47
49973;BME280;71845;49.798;10.968;2023-09-19T01:08:31;97696.28;;;15.91;73.73
49973;BME280;71845;49.798;10.968;2023-09-19T01:11:21;97702.34;;;15.83;73.71
49973;BME280;71845;49.798;10.968;2023-09-19T01:14:00;97707.28;;;15.68;74.61
49973;BME280;71845;49.798;10.968;2023-09-19T01:16:32;97701.66;;;15.81;73.83
49973;BME280;71845;49.798;10.968;2023-09-19T01:19:24;97710.38;;;15.73;74.31
49973;BME280;71845;49.798;10.968;2023-09-19T01:22:05;97703.47;;;15.81;73.90
49973;BME280;71845;49.798;10.968;2023-09-19T01:31:10;97720.47;;;15.89;73.37
49973;BME280;71845;49.798;10.968;2023-09-19T01:33:57;97723.19;;;15.70;73.97
49973;BME280;71845;49.798;10.968;2023-09-19T01:36:38;97719.25;;;15.64;74.00
49973;BME280;71845;49.798;10.968;2023-09-19T01:39:08;97707.00;;;15.61;74.34
49973;BME280;71845;49.798;10.968;2023-09-19T01:41:58;97715.56;;;15.75;73.36
49973;BME280;71845;49.798;10.968;2023-09-19T01:44:40;97716.59;;;15.54;74.09
49973;BME280;71845;49.798;10.968;2023-09-19T01:47:35;97727.28;;;15.44;74.59
49973;BME280;71845;49.798;10.968;2023-09-19T01:50:41;97733.59;;;15.63;74.14
49973;BME280;71845;49.798;10.968;2023-09-19T01:53:24;97733.19;;;15.58;74.37
49973;BME280;71845;49.798;10.968;2023-09-19T01:55:55;97725.69;;;15.71;74.05
49973;BME280;71845;49.798;10.968;2023-09-19T01:58:29;97737.09;;;15.73;74.09
49973;BME280;71845;49.798;10.968;2023-09-19T02:01:01;97737.66;;;15.67;74.67
49973;BME280;71845;49.798;10.968;2023-09-19T02:03:40;97742.56;;;15.82;73.96
49973;BME280;71845;49.798;10.968;2023-09-19T02:06:14;97734.44;;;15.73;74.28
49973;BME280;71845;49.798;10.968;2023-09-19T02:08:45;97739.59;;;15.85;73.92
49973;BME280;71845;49.798;10.968;2023-09-19T02:11:15;97738.34;;;15.79;74.54
49973;BME280;71845;49.798;10.968;2023-09-19T02:13:43;97743.53;;;15.81;74.56
49973;BME280;71845;49.798;10.968;2023-09-19T02:16:16;97744.13;;;15.84;74.37
49973;BME280;71845;49.798;10.968;2023-09-19T02:18:59;97744.38;;;15.91;74.09
49973;BME280;71845;49.798;10.968;2023-09-19T02:21:32;97742.00;;;15.98;73.66
49973;BME280;71845;49.798;10.968;2023-09-19T02:24:02;97745.47;;;16.08;73.40
49973;BME280;71845;49.798;10.968;2023-09-19T02:26:39;97744.66;;;15.78;74.74
49973;BME280;71845;49.798;10.968;2023-09-19T02:29:08;97741.56;;;15.83;74.56
49973;BME280;71845;49.798;10.968;2023-09-19T02:31:39;97744.13;;;15.74;74.91
49973;BME280;71845;49.798;10.968;2023-09-19T02:34:23;97742.97;;;15.87;74.41
49973;BME280;71845;49.798;10.968;2023-09-19T02:36:51;97741.03;;;15.69;74.98
49973;BME280;71845;49.798;10.968;2023-09-19T02:39:20;97732.00;;;15.80;74.15
49973;BME280;71845;49.798;10.968;2023-09-19T02:41:50;97741.88;;;15.70;74.75
49973;BME280;71845;49.798;10.968;2023-09-19T02:44:20;97750.00;;;15.88;74.02
49973;BME280;71845;49.798;10.968;2023-09-19T02:46:50;97749.28;;;15.86;73.78
49973;BME280;71845;49.798;10.968;2023-09-19T02:49:22;97753.53;;;15.78;74.22
49973;BME280;71845;49.798;10.968;2023-09-19T02:51:51;97751.72;;;15.89;73.74
49973;BME280;71845;49.798;10.968;2023-09-19T02:54:26;97749.59;;;15.83;73.80
49973;BME280;71845;49.798;10.968;2023-09-19T02:56:56;97751.97;;;15.86;73.39
49973;BME280;71845;49.798;10.968;2023-09-19T02:59:26;97756.78;;;15.72;73.89
49973;BME280;71845;49.798;10.968;2023-09-19T03:01:57;97745.38;;;15.60;73.94
49973;BME280;71845;49.798;10.968;2023-09-19T03:04:44;97761.00;;;15.75;73.51
49973;BME280;71845;49.798;10.968;2023-09-19T03:07:14;97761.56;;;15.69;73.44
49973;BME280;71845;49.798;10.968;2023-09-19T03:09:41;97761.56;;;15.69;73.29
49973;BME280;71845;49.798;10.968;2023-09-19T03:12:12;97767.03;;;15.77;72.91
49973;BME280;71845;49.798;10.968;2023-09-19T03:14:48;97767.91;;;15.58;73.21
49973;BME280;71845;49.798;10.968;2023-09-19T03:17:18;97767.63;;;15.51;73.65
49973;BME280;71845;49.798;10.968;2023-09-19T03:19:51;97764.66;;;15.64;72.97
49973;BME280;71845;49.798;10.968;2023-09-19T03:22:27;97769.31;;;15.52;73.65
49973;BME280;71845;49.798;10.968;2023-09-19T03:25:05;97769.72;;;15.67;72.88
49973;BME280;71845;49.798;10.968;2023-09-19T03:27:41;97776.91;;;15.67;72.90
49973;BME280;71845;49.798;10.968;2023-09-19T03:30:14;97772.78;;;15.62;73.15
49973;BME280;71845;49.798;10.968;2023-09-19T03:32:45;97769.16;;;15.73;73.46
49973;BME280;71845;49.798;10.968;2023-09-19T03:35:27;97771.41;;;15.68;73.41
49973;BME280;71845;49.798;10.968;2023-09-19T03:37:57;97781.38;;;15.66;73.95
49973;BME280;71845;49.798;10.968;2023-09-19T03:40:27;97776.91;;;15.67;74.03
49973;BME280;71845;49.798;10.968;2023-09-19T03:43:00;97767.19;;;15.66;74.07
49973;BME280;71845;49.798;10.968;2023-09-19T03:45:30;97780.25;;;15.69;74.03
49973;BME280;71845;49.798;10.968;2023-09-19T03:48:00;97779.00;;;15.53;74.69
49973;BME280;71845;49.798;10.968;2023-09-19T03:50:43;97781.53;;;15.64;74.24
49973;BME280;71845;49.798;10.968;2023-09-19T03:53:13;97781.78;;;15.61;74.31
49973;BME280;71845;49.798;10.968;2023-09-19T03:55:45;97781.09;;;15.59;74.53
49973;BME280;71845;49.798;10.968;2023-09-19T03:58:22;97782.09;;;15.58;74.61
49973;BME280;71845;49.798;10.968;2023-09-19T04:00:55;97782.06;;;15.68;74.24
49973;BME280;71845;49.798;10.968;2023-09-19T04:03:25;97786.72;;;15.66;74.43
49973;BME280;71845;49.798;10.968;2023-09-19T04:06:15;97785.16;;;15.63;74.92
49973;BME280;71845;49.798;10.968;2023-09-19T04:08:43;97782.25;;;15.67;74.64
49973;BME280;71845;49.798;10.968;2023-09-19T04:11:18;97788.28;;;15.69;74.68
49973;BME280;71845;49.798;10.968;2023-09-19T04:13:59;97783.22;;;15.66;74.68
49973;BME280;71845;49.798;10.968;2023-09-19T04:16:27;97782.06;;;15.78;74.31
49973;BME280;71845;49.798;10.968;2023-09-19T04:19:03;97789.81;;;15.71;74.69
49973;BME280;71845;49.798;10.968;2023-09-19T04:21:37;97790.53;;;15.73;74.61
49973;BME280;71845;49.798;10.968;2023-09-19T04:24:08;97784.31;;;15.83;74.46
49973;BME280;71845;49.798;10.968;2023-09-19T04:26:45;97802.56;;;16.17;73.08
49973;BME280;71845;49.798;10.968;2023-09-19T04:29:15;97796.41;;;15.87;74.25
49973;BME280;71845;49.798;10.968;2023-09-19T04:31:44;97789.13;;;15.89;74.25
49973;BME280;71845;49.798;10.968;2023-09-19T04:34:14;97788.53;;;15.85;74.65
49973;BME280;71845;49.798;10.968;2023-09-19T04:36:49;97800.06;;;15.96;74.04
49973;BME280;71845;49.798;10.968;2023-09-19T04:39:19;97791.78;;;15.89;74.14
49973;BME280;71845;49.798;10.968;2023-09-19T04:41:52;97798.94;;;15.88;74.27
49973;BME280;71845;49.798;10.968;2023-09-19T04:44:21;97802.59;;;15.97;74.08
49973;BME280;71845;49.798;10.968;2023-09-19T04:46:57;97803.72;;;15.95;74.46
49973;BME280;71845;49.798;10.968;2023-09-19T04:49:27;97802.03;;;15.93;74.50
49973;BME280;71845;49.798;10.968;2023-09-19T04:52:03;97815.66;;;16.00;74.26
49973;BME280;71845;49.798;10.968;2023-09-19T04:54:33;97803.44;;;15.88;74.58
49973;BME280;71845;49.798;10.968;2023-09-19T04:57:01;97810.47;;;15.99;74.21
49973;BME280;71845;49.798;10.968;2023-09-19T04:59:35;97820.72;;;16.03;74.43
49973;BME280;71845;49.798;10.968;2023-09-19T05:02:04;97820.47;;;16.06;74.58
49973;BME280;71845;49.798;10.968;2023-09-19T05:04:40;97829.75;;;16.22;73.92
49973;BME280;71845;49.798;10.968;2023-09-19T05:07:10;97828.19;;;16.19;74.16
49973;BME280;71845;49.798;10.968;2023-09-19T05:09:46;97825.34;;;16.11;74.49
49973;BME280;71845;49.798;10.968;2023-09-19T05:12:16;97828.75;;;16.03;75.16
49973;BME280;71845;49.798;10.968;2023-09-19T05:14:47;97839.31;;;16.05;75.52
49973;BME280;71845;49.798;10.968;2023-09-19T05:17:18;97833.81;;;16.06;75.87
49973;BME280;71845;49.798;10.968;2023-09-19T05:19:48;97840.16;;;16.05;75.94
49973;BME280;71845;49.798;10.968;2023-09-19T05:22:21;97846.63;;;16.23;75.48
49973;BME280;71845;49.798;10.968;2023-09-19T05:24:52;97854.34;;;16.06;76.04
49973;BME280;71845;49.798;10.968;2023-09-19T05:27:22;97853.50;;;15.96;76.82
49973;BME280;71845;49.798;10.968;2023-09-19T05:29:50;97860.81;;;15.84;77.23
49973;BME280;71845;49.798;10.968;2023-09-19T05:32:20;97871.22;;;15.77;77.70
49973;BME280;71845;49.798;10.968;2023-09-19T05:34:49;97875.44;;;15.79;77.64
49973;BME280;71845;49.798;10.968;2023-09-19T05:37:19;97872.06;;;15.87;77.54
49973;BME280;71845;49.798;10.968;2023-09-19T05:39:47;97873.06;;;15.86;77.47
49973;BME280;71845;49.798;10.968;2023-09-19T05:42:17;97874.06;;;15.75;77.64
49973;BME280;71845;49.798;10.968;2023-09-19T05:44:47;97873.91;;;15.87;76.89
49973;BME280;71845;49.798;10.968;2023-09-19T05:47:17;97881.06;;;16.06;76.50
49973;BME280;71845;49.798;10.968;2023-09-19T05:49:45;97874.88;;;15.96;76.68
49973;BME280;71845;49.798;10.968;2023-09-19T05:52:16;97870.41;;;15.86;77.21
49973;BME280;71845;49.798;10.968;2023-09-19T05:54:46;97878.97;;;15.90;77.04
49973;BME280;71845;49.798;10.968;2023-09-19T05:57:23;97878.81;;;15.91;77.09
49973;BME280;71845;49.798;10.968;2023-09-19T05:59:58;97883.75;;;15.86;76.90
49973;BME280;71845;49.798;10.968;2023-09-19T06:02:35;97883.88;;;15.95;76.45
49973;BME280;71845;49.798;10.968;2023-09-19T06:05:08;97879.53;;;15.84;76.65
49973;BME280;71845;49.798;10.968;2023-09-19T06:07:45;97891.78;;;15.96;76.36
49973;BME280;71845;49.798;10.968;2023-09-19T06:10:17;97904.84;;;16.09;75.73
49973;BME280;71845;49.798;10.968;2023-09-19T06:12:49;97897.97;;;16.16;75.68
49973;BME280;71845;49.798;10.968;2023-09-19T06:15:18;97901.06;;;16.41;75.29
49973;BME280;71845;49.798;10.968;2023-09-19T06:17:54;97911.44;;;16.54;74.86
49973;BME280;71845;49.798;10.968;2023-09-19T06:20:23;97918.63;;;16.63;74.41
49973;BME280;71845;49.798;10.968;2023-09-19T06:22:55;97926.44;;;16.95;73.56
49973;BME280;71845;49.798;10.968;2023-09-19T06:25:43;97925.03;;;17.28;72.49
49973;BME280;71845;49.798;10.968;2023-09-19T06:28:15;97920.56;;;17.57;72.12
49973;BME280;71845;49.798;10.968;2023-09-19T06:30:51;97922.63;;;17.63;71.79
49973;BME280;71845;49.798;10.968;2023-09-19T06:33:23;97926.72;;;17.85;71.33
49973;BME280;71845;49.798;10.968;2023-09-19T06:35:57;97926.16;;;17.63;72.17
49973;BME280;71845;49.798;10.968;2023-09-19T06:38:27;97932.63;;;17.89;71.07
49973;BME280;71845;49.798;10.968;2023-09-19T06:41:03;97928.44;;;18.04;70.50
49973;BME280;71845;49.798;10.968;2023-09-19T06:43:35;97935.25;;;17.99;70.30
49973;BME280;71845;49.798;10.968;2023-09-19T06:46:03;97936.00;;;18.09;70.67
49973;BME280;71845;49.798;10.968;2023-09-19T06:48:34;97934.78;;;18.22;69.86
49973;BME280;71845;49.798;10.968;2023-09-19T06:51:03;97928.88;;;18.18;70.07
49973;BME280;71845;49.798;10.968;2023-09-19T06:53:32;97946.50;;;18.20;70.20
49973;BME280;71845;49.798;10.968;2023-09-19T06:56:10;97952.50;;;18.14;69.94
49973;BME280;71845;49.798;10.968;2023-09-19T06:58:40;97951.69;;;17.86;70.35
49973;BME280;71845;49.798;10.968;2023-09-19T07:01:09;97961.34;;;17.79;70.60
49973;BME280;71845;49.798;10.968;2023-09-19T07:03:41;97968.50;;;17.78;70.22
49973;BME280;71845;49.798;10.968;2023-09-19T07:06:12;97968.31;;;17.89;69.65
49973;BME280;71845;49.798;10.968;2023-09-19T07:08:47;97968.41;;;17.98;69.61
49973;BME280;71845;49.798;10.968;2023-09-19T07:11:32;97963.97;;;18.07;69.74
49973;BME280;71845;49.798;10.968;2023-09-19T07:14:04;97966.59;;;18.16;68.98
49973;BME280;71845;49.798;10.968;2023-09-19T07:16:40;97963.06;;;18.16;68.30
49973;BME280;71845;49.798;10.968;2023-09-19T07:19:11;97961.91;;;18.18;68.40
49973;BME280;71845;49.798;10.968;2023-09-19T07:21:40;97968.81;;;18.21;69.26
49973;BME280;71845;49.798;10.968;2023-09-19T07:24:08;97962.94;;;18.36;67.84
49973;BME280;71845;49.798;10.968;2023-09-19T07:26:42;97960.84;;;18.29;68.28
49973;BME280;71845;49.798;10.968;2023-09-19T07:29:11;97970.50;;;18.22;68.20
49973;BME280;71845;49.798;10.968;2023-09-19T07:31:47;97967.00;;;18.40;68.65
49973;BME280;71845;49.798;10.968;2023-09-19T07:34:22;97976.19;;;18.37;68.38
49973;BME280;71845;49.798;10.968;2023-09-19T07:36:52;97983.97;;;18.12;69.03
49973;BME280;71845;49.798;10.968;2023-09-19T07:39:19;97979.16;;;17.98;68.56
49973;BME280;71845;49.798;10.968;2023-09-19T07:41:55;97988.63;;;18.38;67.99
49973;BME280;71845;49.798;10.968;2023-09-19T07:44:25;97986.47;;;18.42;67.54
49973;BME280;71845;49.798;10.968;2023-09-19T07:46:55;97982.13;;;18.13;67.44
49973;BME280;71845;49.798;10.968;2023-09-19T07:49:25;97986.56;;;18.32;67.42
49973;BME280;71845;49.798;10.968;2023-09-19T07:51:53;97988.69;;;18.46;66.93
49973;BME280;71845;49.798;10.968;2023-09-19T07:54:23;97987.53;;;18.67;66.58
49973;BME280;71845;49.798;10.968;2023-09-19T07:56:56;97984.66;;;18.87;65.88
49973;BME280;71845;49.798;10.968;2023-09-19T07:59:27;97988.13;;;18.79;66.07
49973;BME280;71845;49.798;10.968;2023-09-19T08:01:57;97989.56;;;18.92;65.41
49973;BME280;71845;49.798;10.968;2023-09-19T08:04:27;98002.53;;;18.96;64.92
49973;BME280;71845;49.798;10.968;2023-09-19T08:06:57;98000.22;;;19.10;64.65
49973;BME280;71845;49.798;10.968;2023-09-19T08:09:30;98003.56;;;19.03;63.84
49973;BME280;71845;49.798;10.968;2023-09-19T08:12:09;98007.06;;;18.77;64.15
49973;BME280;71845;49.798;10.968;2023-09-19T08:14:39;98015.84;;;19.06;60.82
49973;BME280;71845;49.798;10.968;2023-09-19T08:17:10;98025.16;;;18.94;60.48
49973;BME280;71845;49.798;10.968;2023-09-19T08:19:45;98014.97;;;19.05;59.28
49973;BME280;71845;49.798;10.968;2023-09-19T08:22:20;98023.91;;;19.06;58.70
49973;BME280;71845;49.798;10.968;2023-09-19T08:24:50;98029.28;;;19.06;57.70
49973;BME280;71845;49.798;10.968;2023-09-19T08:27:36;98036.03;;;18.92;57.46
49973;BME280;71845;49.798;10.968;2023-09-19T08:30:05;98036.34;;;18.89;57.78
49973;BME280;71845;49.798;10.968;2023-09-19T08:32:37;98035.97;;;18.84;57.95
49973;BME280;71845;49.798;10.968;2023-09-19T08:35:13;98040.84;;;19.07;57.25
49973;BME280;71845;49.798;10.968;2023-09-19T08:37:43;98044.75;;;19.12;56.31
49973;BME280;71845;49.798;10.968;2023-09-19T08:40:19;98046.78;;;19.18;57.26
49973;BME280;71845;49.798;10.968;2023-09-19T08:42:56;98042.63;;;19.42;56.41
49973;BME280;71845;49.798;10.968;2023-09-19T08:45:27;98048.25;;;19.31;56.48
49973;BME280;71845;49.798;10.968;2023-09-19T08:48:07;98046.19;;;19.25;56.14
49973;BME280;71845;49.798;10.968;2023-09-19T08:50:51;98044.75;;;19.12;55.91
49973;BME280;71845;49.798;10.968;2023-09-19T08:53:31;98043.97;;;19.20;55.93
49973;BME280;71845;49.798;10.968;2023-09-19T08:56:08;98043.41;;;19.16;54.78
49973;BME280;71845;49.798;10.968;2023-09-19T08:58:50;98047.78;;;19.36;55.71
49973;BME280;71845;49.798;10.968;2023-09-19T09:01:26;98055.75;;;19.45;55.51
49973;BME280;71845;49.798;10.968;2023-09-19T09:03:56;98054.06;;;19.26;55.30
49973;BME280;71845;49.798;10.968;2023-09-19T09:06:26;98069.81;;;19.39;55.62
49973;BME280;71845;49.798;10.968;2023-09-19T09:09:00;98060.88;;;19.30;55.24
49973;BME280;71845;49.798;10.968;2023-09-19T09:11:34;98062.97;;;19.27;55.19
49973;BME280;71845;49.798;10.968;2023-09-19T09:14:07;98056.84;;;19.16;54.82
49973;BME280;71845;49.798;10.968;2023-09-19T09:16:35;98063.56;;;19.30;54.25
49973;BME280;71845;49.798;10.968;2023-09-19T09:19:05;98063.97;;;19.26;55.04
49973;BME280;71845;49.798;10.968;2023-09-19T09:21:35;98075.22;;;19.03;54.91
49973;BME280;71845;49.798;10.968;2023-09-19T09:24:30;98070.06;;;19.10;54.58
49973;BME280;71845;49.798;10.968;2023-09-19T09:27:03;98081.97;;;19.07;54.47
49973;BME280;71845;49.798;10.968;2023-09-19T09:29:45;98075.16;;;19.13;55.15
49973;BME280;71845;49.798;10.968;2023-09-19T09:32:27;98073.97;;;19.33;54.52
49973;BME280;71845;49.798;10.968;2023-09-19T09:35:08;98075.50;;;19.36;54.39
49973;BME280;71845;49.798;10.968;2023-09-19T09:37:37;98067.78;;;19.15;53.84
49973;BME280;71845;49.798;10.968;2023-09-19T09:40:06;98070.03;;;19.28;53.67
49973;BME280;71845;49.798;10.968;2023-09-19T09:42:50;98077.66;;;19.32;53.25
49973;BME280;71845;49.798;10.968;2023-09-19T09:45:31;98071.81;;;19.37;53.69
49973;BME280;71845;49.798;10.968;2023-09-19T09:48:15;98064.34;;;19.49;53.01
49973;BME280;71845;49.798;10.968;2023-09-19T09:50:47;98080.81;;;19.54;53.09
49973;BME280;71845;49.798;10.968;2023-09-19T09:53:24;98064.78;;;19.71;52.52
49973;BME280;71845;49.798;10.968;2023-09-19T09:56:05;98057.41;;;19.73;53.36
49973;BME280;71845;49.798;10.968;2023-09-19T09:58:37;98063.44;;;19.75;52.49
49973;BME280;71845;49.798;10.968;2023-09-19T10:01:18;98074.84;;;19.69;52.62
49973;BME280;71845;49.798;10.968;2023-09-19T10:03:47;98066.66;;;19.70;52.48
49973;BME280;71845;49.798;10.968;2023-09-19T10:06:20;98075.88;;;19.68;52.94
49973;BME280;71845;49.798;10.968;2023-09-19T10:09:05;98073.16;;;19.68;53.34
49973;BME280;71845;49.798;10.968;2023-09-19T10:11:43;98071.22;;;19.52;53.13
49973;BME280;71845;49.798;10.968;2023-09-19T10:14:14;98071.50;;;19.75;52.50
49973;BME280;71845;49.798;10.968;2023-09-19T10:16:50;98064.75;;;19.63;52.27
49973;BME280;71845;49.798;10.968;2023-09-19T10:19:30;98057.50;;;19.55;52.40
49973;BME280;71845;49.798;10.968;2023-09-19T10:22:05;98063.09;;;19.70;52.90
49973;BME280;71845;49.798;10.968;2023-09-19T10:24:35;98070.31;;;20.04;52.76
49973;BME280;71845;49.798;10.968;2023-09-19T10:27:04;98075.22;;;20.09;52.49
49973;BME280;71845;49.798;10.968;2023-09-19T10:29:36;98070.59;;;20.36;52.09
49973;BME280;71845;49.798;10.968;2023-09-19T10:32:21;98066.69;;;20.22;51.52
49973;BME280;71845;49.798;10.968;2023-09-19T10:34:50;98069.59;;;20.28;51.70
49973;BME280;71845;49.798;10.968;2023-09-19T10:37:24;98078.44;;;20.12;51.72
49973;BME280;71845;49.798;10.968;2023-09-19T10:39:58;98068.41;;;20.31;51.77
49973;BME280;71845;49.798;10.968;2023-09-19T10:42:27;98066.88;;;20.28;51.31
49973;BME280;71845;49.798;10.968;2023-09-19T10:45:03;98064.03;;;20.30;52.16
49973;BME280;71845;49.798;10.968;2023-09-19T10:47:42;98059.22;;;20.58;50.97
49973;BME280;71845;49.798;10.968;2023-09-19T10:50:20;98065.13;;;20.70;50.28
49973;BME280;71845;49.798;10.968;2023-09-19T10:52:53;98055.03;;;20.72;50.61
49973;BME280;71845;49.798;10.968;2023-09-19T10:55:32;98060.06;;;20.75;49.63
49973;BME280;71845;49.798;10.968;2023-09-19T10:58:03;98060.59;;;20.96;49.30
49973;BME280;71845;49.798;10.968;2023-09-19T11:00:54;98056.72;;;20.98;48.84
49973;BME280;71845;49.798;10.968;2023-09-19T11:03:37;98060.06;;;20.92;48.15
49973;BME280;71845;49.798;10.968;2023-09-19T11:06:15;98053.19;;;20.98;48.13
49973;BME280;71845;49.798;10.968;2023-09-19T11:09:01;98042.59;;;21.21;47.88
49973;BME280;71845;49.798;10.968;2023-09-19T11:11:46;98044.94;;;20.99;46.84
49973;BME280;71845;49.798;10.968;2023-09-19T11:14:41;98049.84;;;21.12;47.67
49973;BME280;71845;49.798;10.968;2023-09-19T11:17:31;98052.81;;;21.01;47.86
49973;BME280;71845;49.798;10.968;2023-09-19T11:20:30;98044.94;;;20.99;46.76
49973;BME280;71845;49.798;10.968;2023-09-19T11:23:21;98042.88;;;21.10;46.40
49973;BME280;71845;49.798;10.968;2023-09-19T11:25:53;98041.88;;;20.94;45.76
49973;BME280;71845;49.798;10.968;2023-09-19T11:28:34;98033.81;;;20.94;46.21
49973;BME280;71845;49.798;10.968;2023-09-19T11:31:42;98036.34;;;21.04;45.70
49973;BME280;71845;49.798;10.968;2023-09-19T11:34:51;98029.28;;;21.03;45.00
49973;BME280;71845;49.798;10.968;2023-09-19T11:44:33;98034.19;;;21.16;44.07
49973;BME280;71845;49.798;10.968;2023-09-19T11:47:10;98046.63;;;21.00;44.21
49973;BME280;71845;49.798;10.968;2023-09-19T11:49:40;98046.28;;;20.79;44.02
49973;BME280;71845;49.798;10.968;2023-09-19T11:52:38;98053.84;;;20.92;45.17
49973;BME280;71845;49.798;10.968;2023-09-19T11:55:10;98038.22;;;21.12;45.48
49973;BME280;71845;49.798;10.968;2023-09-19T11:57:55;98046.59;;;21.25;44.15
49973;BME280;71845;49.798;10.968;2023-09-19T12:00:25;98038.69;;;21.32;45.23
49973;BME280;71845;49.798;10.968;2023-09-19T12:02:55;98038.53;;;21.25;44.19
49973;BME280;71845;49.798;10.968;2023-09-19T12:05:30;98050.94;;;21.51;44.74
49973;BME280;71845;49.798;10.968;2023-09-19T12:08:00;98052.34;;;20.97;44.75
49973;BME280;71845;49.798;10.968;2023-09-19T12:10:31;98044.59;;;21.19;44.05
49973;BME280;71845;49.798;10.968;2023-09-19T12:13:08;98047.81;;;21.23;44.14
49973;BME280;71845;49.798;10.968;2023-09-19T12:15:39;98044.59;;;21.02;43.46
49973;BME280;71845;49.798;10.968;2023-09-19T12:18:26;98053.00;;;21.08;42.82
49973;BME280;71845;49.798;10.968;2023-09-19T12:20:58;98043.94;;;21.17;42.79
49973;BME280;71845;49.798;10.968;2023-09-19T12:23:30;98038.38;;;21.27;43.95
49973;BME280;71845;49.798;10.968;2023-09-19T12:26:04;98048.63;;;21.31;42.31
49973;BME280;71845;49.798;10.968;2023-09-19T12:28:55;98041.56;;;21.06;40.87
49973;BME280;71845;49.798;10.968;2023-09-19T12:31:25;98049.47;;;20.99;41.02
49973;BME280;71845;49.798;10.968;2023-09-19T12:34:04;98052.53;;;21.04;41.21
49973;BME280;71845;49.798;10.968;2023-09-19T12:36:35;98048.28;;;21.35;40.73
49973;BME280;71845;49.798;10.968;2023-09-19T12:39:04;98045.94;;;21.23;41.47
49973;BME280;71845;49.798;10.968;2023-09-19T12:41:34;98044.59;;;21.36;41.76
49973;BME280;71845;49.798;10.968;2023-09-19T12:44:07;98041.53;;;21.47;42.36
49973;BME280;71845;49.798;10.968;2023-09-19T12:46:39;98043.53;;;21.53;42.47
49973;BME280;71845;49.798;10.968;2023-09-19T12:49:20;98035.75;;;21.58;41.83
49973;BME280;71845;49.798;10.968;2023-09-19T12:51:55;98041.50;;;21.55;41.89
49973;BME280;71845;49.798;10.968;2023-09-19T12:54:38;98028.09;;;21.30;41.07
49973;BME280;71845;49.798;10.968;2023-09-19T12:57:07;98034.97;;;21.41;42.07
49973;BME280;71845;49.798;10.968;2023-09-19T12:59:51;98030.78;;;21.30;42.05
49973;BME280;71845;49.798;10.968;2023-09-19T13:02:23;98035.34;;;21.22;41.14
49973;BME280;71845;49.798;10.968;2023-09-19T13:04:59;98036.00;;;21.07;40.30
49973;BME280;71845;49.798;10.968;2023-09-19T13:07:41;98039.56;;;20.99;40.97
49973;BME280;71845;49.798;10.968;2023-09-19T13:10:12;98030.31;;;21.10;41.11
49973;BME280;71845;49.798;10.968;2023-09-19T13:12:51;98031.13;;;21.11;41.88
49973;BME280;71845;49.798;10.968;2023-09-19T13:15:23;98033.13;;;21.25;41.94
49973;BME280;71845;49.798;10.968;2023-09-19T13:17:56;98024.91;;;21.27;41.45
49973;BME280;71845;49.798;10.968;2023-09-19T13:20:29;98025.72;;;21.27;41.80
49973;BME280;71845;49.798;10.968;2023-09-19T13:23:26;98030.28;;;21.19;41.33
49973;BME280;71845;49.798;10.968;2023-09-19T13:25:57;98012.28;;;21.19;41.11
49973;BME280;71845;49.798;10.968;2023-09-19T13:28:27;98019.19;;;21.05;41.67
49973;BME280;71845;49.798;10.968;2023-09-19T13:30:59;98015.47;;;21.14;41.39
49973;BME280;71845;49.798;10.968;2023-09-19T13:33:28;98012.59;;;20.99;41.94
49973;BME280;71845;49.798;10.968;2023-09-19T13:35:56;98020.84;;;21.06;41.91
49973;BME280;71845;49.798;10.968;2023-09-19T13:38:25;98021.88;;;20.97;41.22
49973;BME280;71845;49.798;10.968;2023-09-19T13:40:56;98022.03;;;21.28;42.05
49973;BME280;71845;49.798;10.968;2023-09-19T13:43:27;98013.78;;;21.22;43.11